sensor_id;sensor_type;location;lat;lon;timestamp;temperature;humidity
26621;DHT22;14253;44.840;10.444;2022-12-07T00:03:37;5.90;1.00
26621;DHT22;14253;44.840;10.444;2022-12-07T00:06:04;5.90;1.00
26621;DHT22;14253;44.840;10.444;2022-12-07T00:08:32;5.90;1.00
26621;DHT22;14253;44.840;10.444;2022-12-07T00:11:19;5.90;1.00
26621;DHT22;14253;44.840;10.444;2022-12-07T00:13:47;5.90;1.00
26621;DHT22;14253;44.840;10.444;2022-12-07T00:16:18;6.00;1.00
26621;DHT22;14253;44.840;10.444;2022-12-07T00:18:45;6.00;1.00
26621;DHT22;14253;44.840;10.444;2022-12-07T00:21:16;6.00;1.00
26621;DHT22;14253;44.840;10.444;2022-12-07T00:23:43;6.00;1.00
26621;DHT22;14253;44.840;10.444;2022-12-07T00:26:16;6.00;1.00
26621;DHT22;14253;44.840;10.444;2022-12-07T00:28:46;6.00;1.00
26621;DHT22;14253;44.840;10.444;2022-12-07T00:31:13;6.00;1.00
26621;DHT22;14253;44.840;10.444;2022-12-07T00:33:39;6.00;1.00
26621;DHT22;14253;44.840;10.444;2022-12-07T00:36:09;6.00;1.00
26621;DHT22;14253;44.840;10.444;2022-12-07T00:38:36;6.00;1.00
26621;DHT22;14253;44.840;10.444;2022-12-07T00:41:23;6.00;1.00
26621;DHT22;14253;44.840;10.444;2022-12-07T00:43:50;6.00;1.00
26621;DHT22;14253;44.840;10.444;2022-12-07T00:46:17;6.00;1.00
26621;DHT22;14253;44.840;10.444;2022-12-07T00:48:43;6.00;1.00
26621;DHT22;14253;44.840;10.444;2022-12-07T00:51:14;6.00;1.00
26621;DHT22;14253;44.840;10.444;2022-12-07T00:53:40;6.00;1.00
26621;DHT22;14253;44.840;10.444;2022-12-07T00:56:13;6.00;1.00
26621;DHT22;14253;44.840;10.444;2022-12-07T00:58:39;6.00;1.00
26621;DHT22;14253;44.840;10.444;2022-12-07T01:01:07;6.00;1.00
26621;DHT22;14253;44.840;10.444;2022-12-07T01:03:34;5.90;1.00
26621;DHT22;14253;44.840;10.444;2022-12-07T01:06:01;5.90;1.00
26621;DHT22;14253;44.840;10.444;2022-12-07T01:08:28;5.90;1.00
26621;DHT22;14253;44.840;10.444;2022-12-07T01:11:03;5.90;1.00
26621;DHT22;14253;44.840;10.444;2022-12-07T01:13:30;5.90;1.00
26621;DHT22;14253;44.840;10.444;2022-12-07T01:16:00;5.90;1.00
26621;DHT22;14253;44.840;10.444;2022-12-07T01:18:28;6.00;1.00
26621;DHT22;14253;44.840;10.444;2022-12-07T01:23:25;5.90;1.00
26621;DHT22;14253;44.840;10.444;2022-12-07T01:25:55;5.90;1.00
26621;DHT22;14253;44.840;10.444;2022-12-07T01:28:21;5.90;1.00
26621;DHT22;14253;44.840;10.444;2022-12-07T01:31:05;5.90;1.00
26621;DHT22;14253;44.840;10.444;2022-12-07T01:33:34;5.90;1.00
26621;DHT22;14253;44.840;10.444;2022-12-07T01:36:05;6.00;1.00
26621;DHT22;14253;44.840;10.444;2022-12-07T01:38:32;6.00;1.00
26621;DHT22;14253;44.840;10.444;2022-12-07T01:40:59;6.00;1.00
26621;DHT22;14253;44.840;10.444;2022-12-07T01:43:28;6.00;1.00
26621;DHT22;14253;44.840;10.444;2022-12-07T01:45:55;6.00;1.00
26621;DHT22;14253;44.840;10.444;2022-12-07T01:48:29;6.00;1.00
26621;DHT22;14253;44.840;10.444;2022-12-07T01:50:59;6.00;1.00
26621;DHT22;14253;44.840;10.444;2022-12-07T01:53:29;6.00;1.00
26621;DHT22;14253;44.840;10.444;2022-12-07T01:55:56;6.00;1.00
26621;DHT22;14253;44.840;10.444;2022-12-07T01:58:23;5.90;1.00
26621;DHT22;14253;44.840;10.444;2022-12-07T02:00:50;6.00;1.00
26621;DHT22;14253;44.840;10.444;2022-12-07T02:03:24;6.00;1.00
26621;DHT22;14253;44.840;10.444;2022-12-07T02:05:53;6.00;1.00
26621;DHT22;14253;44.840;10.444;2022-12-07T02:08:20;6.00;1.00
26621;DHT22;14253;44.840;10.444;2022-12-07T02:10:46;5.90;1.00
26621;DHT22;14253;44.840;10.444;2022-12-07T02:13:23;5.90;1.00
26621;DHT22;14253;44.840;10.444;2022-12-07T02:22:18;5.90;1.00
26621;DHT22;14253;44.840;10.444;2022-12-07T02:24:56;5.90;1.00
26621;DHT22;14253;44.840;10.444;2022-12-07T02:30:31;5.80;1.00
26621;DHT22;14253;44.840;10.444;2022-12-07T02:33:16;5.80;1.00
26621;DHT22;14253;44.840;10.444;2022-12-07T02:35:56;5.80;1.00
26621;DHT22;14253;44.840;10.444;2022-12-07T02:38:37;5.80;1.00
26621;DHT22;14253;44.840;10.444;2022-12-07T02:41:14;5.90;1.00
26621;DHT22;14253;44.840;10.444;2022-12-07T02:44:08;5.90;1.00
26621;DHT22;14253;44.840;10.444;2022-12-07T02:46:46;5.80;1.00
26621;DHT22;14253;44.840;10.444;2022-12-07T02:49:14;5.80;1.00
26621;DHT22;14253;44.840;10.444;2022-12-07T02:51:46;5.80;1.00
26621;DHT22;14253;44.840;10.444;2022-12-07T02:54:16;5.80;1.00
26621;DHT22;14253;44.840;10.444;2022-12-07T02:59:53;5.80;1.00
26621;DHT22;14253;44.840;10.444;2022-12-07T03:10:44;5.70;1.00
26621;DHT22;14253;44.840;10.444;2022-12-07T03:18:32;5.70;1.00
26621;DHT22;14253;44.840;10.444;2022-12-07T03:21:03;5.60;1.00
26621;DHT22;14253;44.840;10.444;2022-12-07T03:23:31;5.60;1.00
26621;DHT22;14253;44.840;10.444;2022-12-07T03:26:00;5.70;1.00
26621;DHT22;14253;44.840;10.444;2022-12-07T03:28:30;5.60;1.00
26621;DHT22;14253;44.840;10.444;2022-12-07T03:31:01;5.60;1.00
26621;DHT22;14253;44.840;10.444;2022-12-07T03:33:29;5.60;1.00
26621;DHT22;14253;44.840;10.444;2022-12-07T03:36:14;5.60;1.00
26621;DHT22;14253;44.840;10.444;2022-12-07T03:39:41;5.50;1.00
26621;DHT22;14253;44.840;10.444;2022-12-07T03:41:41;5.50;1.00
26621;DHT22;14253;44.840;10.444;2022-12-07T03:44:08;5.50;1.00
26621;DHT22;14253;44.840;10.444;2022-12-07T03:46:42;5.50;1.00
26621;DHT22;14253;44.840;10.444;2022-12-07T03:49:22;5.50;1.00
26621;DHT22;14253;44.840;10.444;2022-12-07T03:52:24;5.40;1.00
26621;DHT22;14253;44.840;10.444;2022-12-07T03:55:00;5.40;1.00
26621;DHT22;14253;44.840;10.444;2022-12-07T03:57:30;5.20;1.00
26621;DHT22;14253;44.840;10.444;2022-12-07T03:59:57;5.20;1.00
26621;DHT22;14253;44.840;10.444;2022-12-07T04:02:25;5.20;1.00
26621;DHT22;14253;44.840;10.444;2022-12-07T04:04:52;5.10;1.00
26621;DHT22;14253;44.840;10.444;2022-12-07T04:07:19;5.10;1.00
26621;DHT22;14253;44.840;10.444;2022-12-07T04:09:44;5.10;1.00
26621;DHT22;14253;44.840;10.444;2022-12-07T04:12:10;5.10;1.00
26621;DHT22;14253;44.840;10.444;2022-12-07T04:14:36;5.10;1.00
26621;DHT22;14253;44.840;10.444;2022-12-07T04:17:03;5.10;1.00
26621;DHT22;14253;44.840;10.444;2022-12-07T04:19:31;5.10;1.00
26621;DHT22;14253;44.840;10.444;2022-12-07T04:21:59;5.00;1.00
26621;DHT22;14253;44.840;10.444;2022-12-07T04:24:26;5.10;1.00
26621;DHT22;14253;44.840;10.444;2022-12-07T04:26:52;5.10;1.00
26621;DHT22;14253;44.840;10.444;2022-12-07T04:29:19;5.10;1.00
26621;DHT22;14253;44.840;10.444;2022-12-07T04:31:45;5.10;1.00
26621;DHT22;14253;44.840;10.444;2022-12-07T04:34:12;5.00;1.00
26621;DHT22;14253;44.840;10.444;2022-12-07T04:36:38;5.00;1.00
26621;DHT22;14253;44.840;10.444;2022-12-07T04:39:06;5.00;1.00
26621;DHT22;14253;44.840;10.444;2022-12-07T04:41:33;4.90;1.00
26621;DHT22;14253;44.840;10.444;2022-12-07T04:44:01;4.90;1.00
26621;DHT22;14253;44.840;10.444;2022-12-07T04:46:29;4.80;1.00
26621;DHT22;14253;44.840;10.444;2022-12-07T04:48:56;4.80;1.00
26621;DHT22;14253;44.840;10.444;2022-12-07T04:51:25;4.70;1.00
26621;DHT22;14253;44.840;10.444;2022-12-07T04:53:52;4.70;1.00
26621;DHT22;14253;44.840;10.444;2022-12-07T04:56:18;4.70;1.00
26621;DHT22;14253;44.840;10.444;2022-12-07T04:58:46;4.60;1.00
26621;DHT22;14253;44.840;10.444;2022-12-07T05:01:13;4.60;1.00
26621;DHT22;14253;44.840;10.444;2022-12-07T05:03:39;4.50;1.00
26621;DHT22;14253;44.840;10.444;2022-12-07T05:06:06;4.50;1.00
26621;DHT22;14253;44.840;10.444;2022-12-07T05:08:33;4.40;1.00
26621;DHT22;14253;44.840;10.444;2022-12-07T05:11:00;4.40;1.00
26621;DHT22;14253;44.840;10.444;2022-12-07T05:13:26;4.30;1.00
26621;DHT22;14253;44.840;10.444;2022-12-07T05:15:52;4.30;1.00
26621;DHT22;14253;44.840;10.444;2022-12-07T05:18:18;4.30;1.00
26621;DHT22;14253;44.840;10.444;2022-12-07T05:20:45;4.20;1.00
26621;DHT22;14253;44.840;10.444;2022-12-07T05:23:11;4.20;1.00
26621;DHT22;14253;44.840;10.444;2022-12-07T05:25:37;4.10;1.00
26621;DHT22;14253;44.840;10.444;2022-12-07T05:28:04;4.20;1.00
26621;DHT22;14253;44.840;10.444;2022-12-07T05:30:30;4.10;1.00
26621;DHT22;14253;44.840;10.444;2022-12-07T05:32:57;4.10;1.00
26621;DHT22;14253;44.840;10.444;2022-12-07T05:35:23;4.10;1.00
26621;DHT22;14253;44.840;10.444;2022-12-07T05:37:49;4.10;1.00
26621;DHT22;14253;44.840;10.444;2022-12-07T05:40:15;4.10;1.00
26621;DHT22;14253;44.840;10.444;2022-12-07T05:42:41;4.00;1.00
26621;DHT22;14253;44.840;10.444;2022-12-07T05:45:09;4.00;1.00
26621;DHT22;14253;44.840;10.444;2022-12-07T05:47:35;4.00;1.00
26621;DHT22;14253;44.840;10.444;2022-12-07T05:50:02;4.00;1.00
26621;DHT22;14253;44.840;10.444;2022-12-07T05:52:28;3.90;1.00
26621;DHT22;14253;44.840;10.444;2022-12-07T05:54:54;3.90;1.00
26621;DHT22;14253;44.840;10.444;2022-12-07T05:57:31;3.90;1.00
26621;DHT22;14253;44.840;10.444;2022-12-07T06:00:09;3.80;1.00
26621;DHT22;14253;44.840;10.444;2022-12-07T06:02:37;3.80;1.00
26621;DHT22;14253;44.840;10.444;2022-12-07T06:05:04;3.80;1.00
26621;DHT22;14253;44.840;10.444;2022-12-07T06:07:30;3.80;99.90
26621;DHT22;14253;44.840;10.444;2022-12-07T06:09:58;3.80;99.90
26621;DHT22;14253;44.840;10.444;2022-12-07T06:12:24;3.80;99.90
26621;DHT22;14253;44.840;10.444;2022-12-07T06:14:59;3.80;99.90
26621;DHT22;14253;44.840;10.444;2022-12-07T06:17:26;3.70;99.90
26621;DHT22;14253;44.840;10.444;2022-12-07T06:19:52;3.80;99.90
26621;DHT22;14253;44.840;10.444;2022-12-07T06:22:18;3.80;99.90
26621;DHT22;14253;44.840;10.444;2022-12-07T06:24:44;3.80;1.00
26621;DHT22;14253;44.840;10.444;2022-12-07T06:27:10;3.80;1.00
26621;DHT22;14253;44.840;10.444;2022-12-07T06:29:36;3.70;99.90
26621;DHT22;14253;44.840;10.444;2022-12-07T06:32:03;3.70;99.90
26621;DHT22;14253;44.840;10.444;2022-12-07T06:34:29;3.70;99.90
26621;DHT22;14253;44.840;10.444;2022-12-07T06:36:55;3.70;99.90
26621;DHT22;14253;44.840;10.444;2022-12-07T06:39:23;3.70;99.90
26621;DHT22;14253;44.840;10.444;2022-12-07T06:41:49;3.70;99.90
26621;DHT22;14253;44.840;10.444;2022-12-07T06:44:17;3.70;99.90
26621;DHT22;14253;44.840;10.444;2022-12-07T06:46:44;3.60;99.90
26621;DHT22;14253;44.840;10.444;2022-12-07T06:49:10;3.60;99.90
26621;DHT22;14253;44.840;10.444;2022-12-07T06:51:36;3.60;99.90
26621;DHT22;14253;44.840;10.444;2022-12-07T06:54:07;3.50;99.90
26621;DHT22;14253;44.840;10.444;2022-12-07T06:56:34;3.50;99.90
26621;DHT22;14253;44.840;10.444;2022-12-07T06:59:00;3.50;99.90
26621;DHT22;14253;44.840;10.444;2022-12-07T07:01:26;3.50;99.90
26621;DHT22;14253;44.840;10.444;2022-12-07T07:03:52;3.50;99.90
26621;DHT22;14253;44.840;10.444;2022-12-07T07:06:18;3.60;99.90
26621;DHT22;14253;44.840;10.444;2022-12-07T07:08:44;3.60;99.90
26621;DHT22;14253;44.840;10.444;2022-12-07T07:11:11;3.60;99.90
26621;DHT22;14253;44.840;10.444;2022-12-07T07:13:37;3.60;99.90
26621;DHT22;14253;44.840;10.444;2022-12-07T07:16:04;3.60;99.90
26621;DHT22;14253;44.840;10.444;2022-12-07T07:18:30;3.60;99.90
26621;DHT22;14253;44.840;10.444;2022-12-07T07:20:56;3.60;99.90
26621;DHT22;14253;44.840;10.444;2022-12-07T07:23:23;3.60;99.90
26621;DHT22;14253;44.840;10.444;2022-12-07T07:25:49;3.60;99.90
26621;DHT22;14253;44.840;10.444;2022-12-07T07:28:16;3.60;99.90
26621;DHT22;14253;44.840;10.444;2022-12-07T07:30:42;3.60;99.90
26621;DHT22;14253;44.840;10.444;2022-12-07T07:33:09;3.60;99.90
26621;DHT22;14253;44.840;10.444;2022-12-07T07:35:35;3.60;99.90
26621;DHT22;14253;44.840;10.444;2022-12-07T07:38:02;3.60;99.90
26621;DHT22;14253;44.840;10.444;2022-12-07T07:40:28;3.70;99.90
26621;DHT22;14253;44.840;10.444;2022-12-07T07:42:55;3.70;99.90
26621;DHT22;14253;44.840;10.444;2022-12-07T07:45:23;3.70;99.90
26621;DHT22;14253;44.840;10.444;2022-12-07T07:47:49;3.70;99.90
26621;DHT22;14253;44.840;10.444;2022-12-07T07:50:15;3.70;99.90
26621;DHT22;14253;44.840;10.444;2022-12-07T07:52:42;3.60;99.90
26621;DHT22;14253;44.840;10.444;2022-12-07T07:55:08;3.70;99.90
26621;DHT22;14253;44.840;10.444;2022-12-07T07:57:38;3.60;99.90
26621;DHT22;14253;44.840;10.444;2022-12-07T08:00:14;3.70;1.00
26621;DHT22;14253;44.840;10.444;2022-12-07T08:02:41;3.80;1.00
26621;DHT22;14253;44.840;10.444;2022-12-07T08:05:09;3.80;1.00
26621;DHT22;14253;44.840;10.444;2022-12-07T08:07:35;3.80;1.00
26621;DHT22;14253;44.840;10.444;2022-12-07T08:10:01;3.90;1.00
26621;DHT22;14253;44.840;10.444;2022-12-07T08:12:27;3.90;1.00
26621;DHT22;14253;44.840;10.444;2022-12-07T08:14:53;4.00;99.90
26621;DHT22;14253;44.840;10.444;2022-12-07T08:17:19;4.10;1.00
26621;DHT22;14253;44.840;10.444;2022-12-07T08:19:45;4.10;1.00
26621;DHT22;14253;44.840;10.444;2022-12-07T08:22:11;4.20;99.90
26621;DHT22;14253;44.840;10.444;2022-12-07T08:24:37;4.10;99.90
26621;DHT22;14253;44.840;10.444;2022-12-07T08:27:03;4.20;99.90
26621;DHT22;14253;44.840;10.444;2022-12-07T08:29:29;4.20;99.90
26621;DHT22;14253;44.840;10.444;2022-12-07T08:31:55;4.30;99.90
26621;DHT22;14253;44.840;10.444;2022-12-07T08:34:21;4.30;99.90
26621;DHT22;14253;44.840;10.444;2022-12-07T08:36:47;4.30;99.90
26621;DHT22;14253;44.840;10.444;2022-12-07T08:39:13;4.30;99.90
26621;DHT22;14253;44.840;10.444;2022-12-07T08:41:39;4.30;99.90
26621;DHT22;14253;44.840;10.444;2022-12-07T08:44:06;4.40;99.90
26621;DHT22;14253;44.840;10.444;2022-12-07T08:46:41;4.30;99.90
26621;DHT22;14253;44.840;10.444;2022-12-07T08:49:13;4.40;99.90
26621;DHT22;14253;44.840;10.444;2022-12-07T08:51:40;4.50;99.90
26621;DHT22;14253;44.840;10.444;2022-12-07T08:54:09;4.40;99.90
26621;DHT22;14253;44.840;10.444;2022-12-07T08:56:36;4.40;99.90
26621;DHT22;14253;44.840;10.444;2022-12-07T08:59:02;4.30;99.90
26621;DHT22;14253;44.840;10.444;2022-12-07T09:01:28;4.30;99.90
26621;DHT22;14253;44.840;10.444;2022-12-07T09:03:55;4.30;99.90
26621;DHT22;14253;44.840;10.444;2022-12-07T09:06:21;4.30;99.90
26621;DHT22;14253;44.840;10.444;2022-12-07T09:08:50;4.30;99.90
26621;DHT22;14253;44.840;10.444;2022-12-07T09:11:17;4.40;99.90
26621;DHT22;14253;44.840;10.444;2022-12-07T09:13:43;4.40;99.90
26621;DHT22;14253;44.840;10.444;2022-12-07T09:16:09;4.40;99.90
26621;DHT22;14253;44.840;10.444;2022-12-07T09:18:34;4.50;99.90
26621;DHT22;14253;44.840;10.444;2022-12-07T09:21:00;4.60;99.90
26621;DHT22;14253;44.840;10.444;2022-12-07T09:23:26;4.70;99.90
26621;DHT22;14253;44.840;10.444;2022-12-07T09:25:52;4.70;99.90
26621;DHT22;14253;44.840;10.444;2022-12-07T09:28:18;4.70;99.90
26621;DHT22;14253;44.840;10.444;2022-12-07T09:30:48;4.70;99.90
26621;DHT22;14253;44.840;10.444;2022-12-07T09:33:14;4.80;99.90
26621;DHT22;14253;44.840;10.444;2022-12-07T09:35:47;4.80;99.90
26621;DHT22;14253;44.840;10.444;2022-12-07T09:38:14;4.80;99.90
26621;DHT22;14253;44.840;10.444;2022-12-07T09:40:41;4.80;99.90
26621;DHT22;14253;44.840;10.444;2022-12-07T09:43:18;4.80;99.90
26621;DHT22;14253;44.840;10.444;2022-12-07T09:45:47;4.80;99.90
26621;DHT22;14253;44.840;10.444;2022-12-07T09:48:22;4.80;99.90
26621;DHT22;14253;44.840;10.444;2022-12-07T09:50:49;4.80;99.90
26621;DHT22;14253;44.840;10.444;2022-12-07T09:53:24;4.80;99.90
26621;DHT22;14253;44.840;10.444;2022-12-07T09:55:51;4.90;99.90
26621;DHT22;14253;44.840;10.444;2022-12-07T09:58:25;5.00;99.90
26621;DHT22;14253;44.840;10.444;2022-12-07T10:01:00;5.00;99.90
26621;DHT22;14253;44.840;10.444;2022-12-07T10:03:29;5.20;99.90
26621;DHT22;14253;44.840;10.444;2022-12-07T10:05:55;5.20;99.90
26621;DHT22;14253;44.840;10.444;2022-12-07T10:08:24;5.30;99.90
26621;DHT22;14253;44.840;10.444;2022-12-07T10:10:55;5.40;99.90
26621;DHT22;14253;44.840;10.444;2022-12-07T10:13:34;5.20;99.90
26621;DHT22;14253;44.840;10.444;2022-12-07T10:16:01;5.10;99.90
26621;DHT22;14253;44.840;10.444;2022-12-07T10:18:34;5.00;99.90
26621;DHT22;14253;44.840;10.444;2022-12-07T10:21:26;5.00;99.90
26621;DHT22;14253;44.840;10.444;2022-12-07T10:24:03;5.00;99.90
26621;DHT22;14253;44.840;10.444;2022-12-07T10:26:33;5.00;99.90
26621;DHT22;14253;44.840;10.444;2022-12-07T10:31:43;5.00;99.90
26621;DHT22;14253;44.840;10.444;2022-12-07T10:34:27;4.80;99.90
26621;DHT22;14253;44.840;10.444;2022-12-07T10:37:12;4.80;99.90
26621;DHT22;14253;44.840;10.444;2022-12-07T10:39:42;4.90;99.90
26621;DHT22;14253;44.840;10.444;2022-12-07T10:42:23;4.90;99.90
26621;DHT22;14253;44.840;10.444;2022-12-07T10:45:07;4.90;99.90
26621;DHT22;14253;44.840;10.444;2022-12-07T10:47:55;5.00;99.90
26621;DHT22;14253;44.840;10.444;2022-12-07T10:53:37;5.00;99.90
26621;DHT22;14253;44.840;10.444;2022-12-07T11:04:43;5.20;99.90
26621;DHT22;14253;44.840;10.444;2022-12-07T11:07:27;5.30;99.90
26621;DHT22;14253;44.840;10.444;2022-12-07T11:10:15;5.50;99.90
26621;DHT22;14253;44.840;10.444;2022-12-07T11:13:16;5.60;99.90
26621;DHT22;14253;44.840;10.444;2022-12-07T11:18:52;5.40;99.90
26621;DHT22;14253;44.840;10.444;2022-12-07T11:22:09;5.30;99.90
26621;DHT22;14253;44.840;10.444;2022-12-07T11:27:27;5.20;99.90
26621;DHT22;14253;44.840;10.444;2022-12-07T11:35:50;4.90;99.90
26621;DHT22;14253;44.840;10.444;2022-12-07T11:38:28;5.00;99.90
26621;DHT22;14253;44.840;10.444;2022-12-07T11:41:02;5.10;99.90
26621;DHT22;14253;44.840;10.444;2022-12-07T11:44:07;5.20;99.90
26621;DHT22;14253;44.840;10.444;2022-12-07T11:47:00;5.30;99.90
26621;DHT22;14253;44.840;10.444;2022-12-07T11:49:42;5.20;99.90
26621;DHT22;14253;44.840;10.444;2022-12-07T11:55:02;5.10;99.90
26621;DHT22;14253;44.840;10.444;2022-12-07T11:57:38;5.20;99.90
26621;DHT22;14253;44.840;10.444;2022-12-07T12:00:17;5.10;99.90
26621;DHT22;14253;44.840;10.444;2022-12-07T12:03:08;5.00;99.90
26621;DHT22;14253;44.840;10.444;2022-12-07T12:05:35;5.10;99.90
26621;DHT22;14253;44.840;10.444;2022-12-07T12:08:27;5.10;99.90
26621;DHT22;14253;44.840;10.444;2022-12-07T12:11:06;5.10;99.90
26621;DHT22;14253;44.840;10.444;2022-12-07T12:13:56;5.10;99.90
26621;DHT22;14253;44.840;10.444;2022-12-07T12:19:44;5.00;99.90
26621;DHT22;14253;44.840;10.444;2022-12-07T12:22:17;4.90;99.90
26621;DHT22;14253;44.840;10.444;2022-12-07T12:24:48;5.00;99.90
26621;DHT22;14253;44.840;10.444;2022-12-07T12:27:29;5.10;99.90
26621;DHT22;14253;44.840;10.444;2022-12-07T12:30:03;5.10;99.90
26621;DHT22;14253;44.840;10.444;2022-12-07T12:32:39;5.00;99.90
26621;DHT22;14253;44.840;10.444;2022-12-07T12:35:35;5.10;99.90
26621;DHT22;14253;44.840;10.444;2022-12-07T12:38:27;5.20;99.90
26621;DHT22;14253;44.840;10.444;2022-12-07T12:40:55;5.20;99.90
26621;DHT22;14253;44.840;10.444;2022-12-07T12:49:14;5.20;99.90
26621;DHT22;14253;44.840;10.444;2022-12-07T12:51:44;5.20;99.90
26621;DHT22;14253;44.840;10.444;2022-12-07T13:26:17;5.30;99.90
26621;DHT22;14253;44.840;10.444;2022-12-07T13:28:49;5.30;99.90
26621;DHT22;14253;44.840;10.444;2022-12-07T13:33:44;5.20;99.90
26621;DHT22;14253;44.840;10.444;2022-12-07T13:36:37;5.20;99.90
26621;DHT22;14253;44.840;10.444;2022-12-07T13:41:42;5.20;99.90
26621;DHT22;14253;44.840;10.444;2022-12-07T13:47:05;5.10;99.90
26621;DHT22;14253;44.840;10.444;2022-12-07T13:49:38;5.20;99.90
26621;DHT22;14253;44.840;10.444;2022-12-07T13:52:20;5.10;99.90
26621;DHT22;14253;44.840;10.444;2022-12-07T13:57:34;5.00;99.90
26621;DHT22;14253;44.840;10.444;2022-12-07T14:00:05;5.10;99.90
26621;DHT22;14253;44.840;10.444;2022-12-07T14:02:34;5.10;99.90
26621;DHT22;14253;44.840;10.444;2022-12-07T14:05:22;5.10;99.90
26621;DHT22;14253;44.840;10.444;2022-12-07T14:10:54;5.20;99.90
26621;DHT22;14253;44.840;10.444;2022-12-07T14:13:30;5.20;99.90
26621;DHT22;14253;44.840;10.444;2022-12-07T14:15:57;5.30;99.90
26621;DHT22;14253;44.840;10.444;2022-12-07T14:18:37;5.20;99.90
26621;DHT22;14253;44.840;10.444;2022-12-07T14:23:37;5.10;99.90
26621;DHT22;14253;44.840;10.444;2022-12-07T14:26:12;5.10;99.90
26621;DHT22;14253;44.840;10.444;2022-12-07T14:28:40;5.00;99.90
26621;DHT22;14253;44.840;10.444;2022-12-07T14:31:15;5.00;99.90
26621;DHT22;14253;44.840;10.444;2022-12-07T14:33:42;5.00;99.90
26621;DHT22;14253;44.840;10.444;2022-12-07T14:36:12;5.00;99.90
26621;DHT22;14253;44.840;10.444;2022-12-07T14:38:39;5.00;99.90
26621;DHT22;14253;44.840;10.444;2022-12-07T14:41:17;4.90;99.90
26621;DHT22;14253;44.840;10.444;2022-12-07T14:44:11;4.90;99.90
26621;DHT22;14253;44.840;10.444;2022-12-07T14:46:38;4.90;99.90
26621;DHT22;14253;44.840;10.444;2022-12-07T14:49:05;4.80;99.90
26621;DHT22;14253;44.840;10.444;2022-12-07T14:51:31;4.80;99.90
26621;DHT22;14253;44.840;10.444;2022-12-07T14:53:58;4.80;99.90
26621;DHT22;14253;44.840;10.444;2022-12-07T14:56:25;4.80;99.90
26621;DHT22;14253;44.840;10.444;2022-12-07T14:58:51;4.80;99.90
26621;DHT22;14253;44.840;10.444;2022-12-07T15:01:17;4.80;99.90
26621;DHT22;14253;44.840;10.444;2022-12-07T15:03:43;4.80;99.90
26621;DHT22;14253;44.840;10.444;2022-12-07T15:06:14;4.80;99.90
26621;DHT22;14253;44.840;10.444;2022-12-07T15:08:40;4.80;99.90
26621;DHT22;14253;44.840;10.444;2022-12-07T15:11:09;4.80;99.90
26621;DHT22;14253;44.840;10.444;2022-12-07T15:13:40;4.90;99.90
26621;DHT22;14253;44.840;10.444;2022-12-07T15:16:25;4.90;99.90
26621;DHT22;14253;44.840;10.444;2022-12-07T15:18:51;4.80;99.90
26621;DHT22;14253;44.840;10.444;2022-12-07T15:21:17;4.80;99.90
26621;DHT22;14253;44.840;10.444;2022-12-07T15:23:43;4.70;99.90
26621;DHT22;14253;44.840;10.444;2022-12-07T15:26:12;4.70;99.90
26621;DHT22;14253;44.840;10.444;2022-12-07T15:28:40;4.70;99.90
26621;DHT22;14253;44.840;10.444;2022-12-07T15:31:17;4.70;99.90
26621;DHT22;14253;44.840;10.444;2022-12-07T15:33:43;4.50;99.90
26621;DHT22;14253;44.840;10.444;2022-12-07T15:36:23;4.50;99.90
26621;DHT22;14253;44.840;10.444;2022-12-07T15:38:50;4.50;99.90
26621;DHT22;14253;44.840;10.444;2022-12-07T15:41:17;4.60;99.90
26621;DHT22;14253;44.840;10.444;2022-12-07T15:43:43;4.60;99.90
26621;DHT22;14253;44.840;10.444;2022-12-07T15:46:36;4.60;99.90
26621;DHT22;14253;44.840;10.444;2022-12-07T15:49:05;4.60;99.90
26621;DHT22;14253;44.840;10.444;2022-12-07T15:51:32;4.60;99.90
26621;DHT22;14253;44.840;10.444;2022-12-07T15:53:58;4.60;99.90
26621;DHT22;14253;44.840;10.444;2022-12-07T15:56:24;4.60;99.90
26621;DHT22;14253;44.840;10.444;2022-12-07T15:58:50;4.50;99.90
26621;DHT22;14253;44.840;10.444;2022-12-07T16:01:18;4.50;99.90
26621;DHT22;14253;44.840;10.444;2022-12-07T16:03:45;4.50;99.90
26621;DHT22;14253;44.840;10.444;2022-12-07T16:06:12;4.50;99.90
26621;DHT22;14253;44.840;10.444;2022-12-07T16:08:45;4.50;99.90
26621;DHT22;14253;44.840;10.444;2022-12-07T16:11:11;4.50;99.90
26621;DHT22;14253;44.840;10.444;2022-12-07T16:13:38;4.50;99.90
26621;DHT22;14253;44.840;10.444;2022-12-07T16:16:06;4.40;99.90
26621;DHT22;14253;44.840;10.444;2022-12-07T16:18:33;4.40;99.90
26621;DHT22;14253;44.840;10.444;2022-12-07T16:20:59;4.30;99.90
26621;DHT22;14253;44.840;10.444;2022-12-07T16:23:26;4.30;99.90
26621;DHT22;14253;44.840;10.444;2022-12-07T16:25:52;4.40;99.90
26621;DHT22;14253;44.840;10.444;2022-12-07T16:28:18;4.30;99.90
26621;DHT22;14253;44.840;10.444;2022-12-07T16:30:44;4.40;99.90
26621;DHT22;14253;44.840;10.444;2022-12-07T16:33:11;4.30;99.90
26621;DHT22;14253;44.840;10.444;2022-12-07T16:35:41;4.30;99.90
26621;DHT22;14253;44.840;10.444;2022-12-07T16:38:07;4.20;99.90
26621;DHT22;14253;44.840;10.444;2022-12-07T16:40:33;4.10;99.90
26621;DHT22;14253;44.840;10.444;2022-12-07T16:42:59;4.20;99.90
26621;DHT22;14253;44.840;10.444;2022-12-07T16:45:25;4.30;99.90
26621;DHT22;14253;44.840;10.444;2022-12-07T16:47:51;4.30;99.90
26621;DHT22;14253;44.840;10.444;2022-12-07T16:50:18;4.20;99.90
26621;DHT22;14253;44.840;10.444;2022-12-07T16:52:44;4.30;99.90
26621;DHT22;14253;44.840;10.444;2022-12-07T16:55:10;4.20;99.90
26621;DHT22;14253;44.840;10.444;2022-12-07T16:57:36;4.20;99.90
26621;DHT22;14253;44.840;10.444;2022-12-07T17:00:02;4.20;99.90
26621;DHT22;14253;44.840;10.444;2022-12-07T17:02:29;4.20;99.90
26621;DHT22;14253;44.840;10.444;2022-12-07T17:04:55;4.20;99.90
26621;DHT22;14253;44.840;10.444;2022-12-07T17:07:21;4.20;99.90
26621;DHT22;14253;44.840;10.444;2022-12-07T17:09:47;4.20;99.90
26621;DHT22;14253;44.840;10.444;2022-12-07T17:12:13;4.20;99.90
26621;DHT22;14253;44.840;10.444;2022-12-07T17:14:39;4.20;99.90
26621;DHT22;14253;44.840;10.444;2022-12-07T17:17:24;4.20;99.90
26621;DHT22;14253;44.840;10.444;2022-12-07T17:19:54;4.10;99.90
26621;DHT22;14253;44.840;10.444;2022-12-07T17:22:19;4.20;99.90
26621;DHT22;14253;44.840;10.444;2022-12-07T17:24:46;4.20;99.90
26621;DHT22;14253;44.840;10.444;2022-12-07T17:27:12;4.20;99.90
26621;DHT22;14253;44.840;10.444;2022-12-07T17:29:38;4.20;99.90
26621;DHT22;14253;44.840;10.444;2022-12-07T17:32:04;4.20;99.90
26621;DHT22;14253;44.840;10.444;2022-12-07T17:34:30;4.20;99.90
26621;DHT22;14253;44.840;10.444;2022-12-07T17:36:56;4.10;99.90
26621;DHT22;14253;44.840;10.444;2022-12-07T17:39:22;4.20;99.90
26621;DHT22;14253;44.840;10.444;2022-12-07T17:41:48;4.20;99.90
26621;DHT22;14253;44.840;10.444;2022-12-07T17:44:33;4.20;99.90
26621;DHT22;14253;44.840;10.444;2022-12-07T17:46:59;4.20;99.90
26621;DHT22;14253;44.840;10.444;2022-12-07T17:49:27;4.20;99.90
26621;DHT22;14253;44.840;10.444;2022-12-07T17:51:53;4.20;99.90
26621;DHT22;14253;44.840;10.444;2022-12-07T17:54:38;4.20;99.90